createdAt,value
2018-06-12T00:00:16.103Z,95.30
2018-06-12T00:02:44.952Z,95.10
2018-06-12T00:05:13.791Z,94.80
2018-06-12T00:07:42.643Z,94.90
2018-06-12T00:10:11.499Z,94.80
2018-06-12T00:12:40.342Z,94.70
2018-06-12T00:15:09.209Z,94.80
2018-06-12T00:17:38.058Z,94.50
2018-06-12T00:20:06.904Z,94.60
2018-06-12T00:22:35.735Z,95.30
2018-06-12T00:25:04.567Z,94.50
2018-06-12T00:27:34.146Z,94.40
2018-06-12T00:30:02.987Z,94.50
2018-06-12T00:32:31.838Z,94.60
2018-06-12T00:35:00.684Z,94.60
2018-06-12T00:37:29.523Z,94.50
2018-06-12T00:39:58.367Z,94.30
2018-06-12T00:42:27.206Z,94.20
2018-06-12T00:44:56.040Z,94.30
2018-06-12T00:47:24.889Z,94.30
2018-06-12T00:49:54.465Z,94.50
2018-06-12T00:52:23.304Z,94.40
2018-06-12T00:54:52.149Z,94.70
2018-06-12T00:57:20.983Z,94.40
2018-06-12T00:59:49.820Z,94.40
2018-06-12T01:02:18.667Z,94.30
2018-06-12T01:04:47.512Z,94.00
2018-06-12T01:07:16.355Z,93.90
2018-06-12T01:09:45.191Z,93.80
2018-06-12T01:12:14.047Z,93.50
2018-06-12T01:14:42.891Z,93.50
2018-06-12T01:17:11.727Z,93.50
2018-06-12T01:19:40.580Z,93.50
2018-06-12T01:22:09.424Z,93.20
2018-06-12T01:24:38.259Z,93.50
2018-06-12T01:27:07.101Z,93.10
2018-06-12T01:29:35.937Z,93.00
2018-06-12T01:32:04.933Z,93.10
2018-06-12T01:34:33.768Z,93.00
2018-06-12T01:37:02.614Z,93.10
2018-06-12T01:39:31.458Z,93.00
2018-06-12T01:42:00.299Z,92.70
2018-06-12T01:44:29.131Z,92.70
2018-06-12T01:46:57.976Z,92.80
2018-06-12T01:49:26.810Z,92.50
2018-06-12T01:51:55.660Z,92.80
2018-06-12T01:54:24.499Z,92.50
2018-06-12T01:56:54.089Z,92.40
2018-06-12T01:59:22.937Z,92.60
2018-06-12T02:01:51.803Z,92.40
2018-06-12T02:04:21.375Z,92.70
2018-06-12T02:06:50.216Z,92.70
2018-06-12T02:09:19.052Z,92.60
2018-06-12T02:11:47.892Z,92.70
2018-06-12T02:14:16.736Z,92.30
2018-06-12T02:16:45.583Z,92.30
2018-06-12T02:19:14.432Z,92.20
2018-06-12T02:21:44.014Z,92.30
2018-06-12T02:24:12.854Z,92.50
2018-06-12T02:26:41.697Z,92.30
2018-06-12T02:31:40.698Z,92.20
2018-06-12T02:34:09.552Z,92.20
2018-06-12T02:36:38.384Z,92.50
2018-06-12T02:39:07.232Z,92.40
2018-06-12T02:41:36.063Z,92.20
2018-06-12T02:44:04.899Z,92.20
2018-06-12T02:46:33.752Z,92.40
2018-06-12T02:49:02.585Z,92.80
2018-06-12T02:51:31.415Z,92.40
2018-06-12T02:54:00.265Z,92.50
2018-06-12T02:56:29.102Z,92.60
2018-06-12T02:58:57.940Z,92.70
2018-06-12T03:01:26.787Z,92.90
2018-06-12T03:03:56.406Z,93.10
2018-06-12T03:06:25.250Z,92.90
2018-06-12T03:08:54.095Z,93.40
2018-06-12T03:11:22.932Z,93.40
2018-06-12T03:13:51.776Z,93.20
2018-06-12T03:16:20.618Z,93.40
2018-06-12T03:18:49.463Z,93.50
2018-06-12T03:21:18.302Z,93.60
2018-06-12T03:23:47.134Z,93.50
2018-06-12T03:26:15.975Z,93.60
2018-06-12T03:28:44.824Z,93.80
2018-06-12T03:31:13.670Z,93.50
2018-06-12T03:33:42.517Z,93.70
2018-06-12T03:36:11.357Z,93.80
2018-06-12T03:38:40.200Z,93.70
2018-06-12T03:41:09.032Z,93.30
2018-06-12T03:43:38.612Z,93.20
2018-06-12T03:46:07.460Z,93.20
2018-06-12T03:48:36.311Z,92.90
2018-06-12T03:51:05.160Z,93.00
2018-06-12T03:53:33.990Z,93.00
2018-06-12T03:56:03.581Z,92.90
2018-06-12T03:58:32.405Z,92.80
2018-06-12T04:01:01.245Z,92.60
2018-06-12T04:03:30.092Z,92.70
2018-06-12T04:05:58.934Z,92.70
2018-06-12T04:08:27.772Z,92.80
2018-06-12T04:10:56.614Z,92.80
2018-06-12T04:13:25.464Z,93.00
2018-06-12T04:15:54.299Z,93.00
2018-06-12T04:18:23.152Z,92.80
2018-06-12T04:20:51.992Z,93.10
2018-06-12T04:23:21.569Z,92.90
2018-06-12T04:25:50.433Z,92.90
2018-06-12T04:28:19.246Z,92.90
2018-06-12T04:30:48.087Z,93.10
2018-06-12T04:33:16.929Z,93.00
2018-06-12T04:35:46.520Z,92.90
2018-06-12T04:38:15.346Z,93.30
2018-06-12T04:40:44.937Z,93.00
2018-06-12T04:43:13.784Z,92.90
2018-06-12T04:45:42.616Z,92.70
2018-06-12T04:48:11.458Z,92.70
2018-06-12T04:50:40.291Z,93.00
2018-06-12T04:53:09.132Z,92.90
2018-06-12T04:55:37.996Z,92.80
2018-06-12T04:58:06.837Z,92.80
2018-06-12T05:00:35.663Z,92.70
2018-06-12T05:03:04.524Z,92.70
2018-06-12T05:05:33.372Z,92.60
2018-06-12T05:08:02.223Z,93.00
2018-06-12T05:10:31.128Z,92.70
2018-06-12T05:12:59.916Z,92.10
2018-06-12T05:15:28.754Z,91.80
2018-06-12T05:17:57.595Z,91.80
2018-06-12T05:20:27.179Z,91.80
2018-06-12T05:22:56.033Z,91.30
2018-06-12T05:25:24.872Z,91.40
2018-06-12T05:27:53.728Z,91.10
2018-06-12T05:30:22.568Z,91.00
2018-06-12T05:32:51.425Z,91.00
2018-06-12T05:35:20.266Z,90.60
2018-06-12T05:37:49.107Z,90.60
2018-06-12T05:40:17.940Z,90.80
2018-06-12T05:42:46.783Z,90.60
2018-06-12T05:45:15.616Z,90.60
2018-06-12T05:47:44.462Z,90.50
2018-06-12T05:50:13.303Z,90.30
2018-06-12T05:52:42.145Z,89.80
2018-06-12T05:55:10.974Z,90.00
2018-06-12T05:57:39.831Z,90.40
2018-06-12T06:00:09.407Z,90.40
2018-06-12T06:02:38.242Z,90.20
2018-06-12T06:05:07.094Z,90.60
2018-06-12T06:10:05.369Z,90.60
2018-06-12T06:12:34.221Z,90.80
2018-06-12T06:15:03.070Z,91.00
2018-06-12T06:17:31.908Z,91.10
2018-06-12T06:20:00.756Z,90.90
2018-06-12T06:22:29.621Z,91.10
2018-06-12T06:24:58.458Z,90.40
2018-06-12T06:27:27.299Z,90.80
2018-06-12T06:29:56.136Z,90.70
2018-06-12T06:32:25.879Z,90.70
2018-06-12T06:34:54.586Z,90.60
2018-06-12T06:37:23.423Z,90.50
2018-06-12T06:39:52.308Z,90.70
2018-06-12T06:42:21.128Z,90.60
2018-06-12T06:44:49.959Z,90.40
2018-06-12T06:47:18.809Z,90.20
2018-06-12T06:49:47.654Z,90.50
2018-06-12T06:52:17.241Z,90.60
2018-06-12T06:54:46.096Z,90.20
2018-06-12T06:57:14.920Z,90.10
2018-06-12T06:59:43.906Z,90.70
2018-06-12T07:02:12.752Z,90.70
2018-06-12T07:04:41.602Z,91.40
2018-06-12T07:07:10.440Z,91.20
2018-06-12T07:09:39.291Z,91.30
2018-06-12T07:12:08.884Z,91.90
2018-06-12T07:14:37.733Z,91.90
2018-06-12T07:17:06.568Z,91.50
2018-06-12T07:19:36.153Z,91.10
2018-06-12T07:22:04.993Z,90.90
2018-06-12T07:24:33.842Z,90.70
2018-06-12T07:27:02.731Z,91.60
2018-06-12T07:29:31.532Z,91.30
2018-06-12T07:32:00.383Z,90.60
2018-06-12T07:36:18.403Z,90.60
2018-06-12T07:38:47.250Z,90.40
2018-06-12T07:41:16.092Z,90.40
2018-06-12T07:43:44.925Z,90.40
2018-06-12T07:46:13.766Z,90.20
2018-06-12T07:48:42.607Z,90.60
2018-06-12T07:51:11.450Z,90.20
2018-06-12T07:53:40.291Z,90.50
2018-06-12T07:56:09.883Z,90.70
2018-06-12T07:58:38.750Z,90.60
2018-06-12T08:01:07.588Z,90.70
2018-06-12T08:03:36.433Z,90.80
2018-06-12T08:06:05.295Z,91.00
2018-06-12T08:08:34.142Z,91.20
2018-06-12T08:11:02.975Z,92.10
2018-06-12T08:13:31.824Z,92.90
2018-06-12T08:16:00.684Z,92.00
2018-06-12T08:18:29.562Z,91.80
2018-06-12T08:20:58.371Z,92.40
2018-06-12T08:25:57.412Z,92.10
2018-06-12T08:28:26.243Z,92.20
2018-06-12T08:30:55.103Z,91.90
2018-06-12T08:33:23.950Z,92.70
2018-06-12T08:35:53.533Z,92.90
2018-06-12T08:38:22.367Z,91.90
2018-06-12T08:40:52.037Z,92.00
2018-06-12T08:43:21.578Z,92.40
2018-06-12T08:45:51.160Z,92.00
2018-06-12T08:48:20.003Z,92.50
2018-06-12T08:50:48.861Z,92.30
2018-06-12T08:53:17.741Z,92.20
2018-06-12T08:55:46.586Z,92.80
2018-06-12T08:58:15.435Z,92.60
2018-06-12T09:00:44.268Z,92.70
2018-06-12T09:03:13.111Z,92.80
2018-06-12T09:05:42.690Z,92.90
2018-06-12T09:08:11.535Z,92.70
2018-06-12T09:10:40.382Z,92.80
2018-06-12T09:13:09.237Z,93.30
2018-06-12T09:15:38.093Z,93.00
2018-06-12T09:18:06.941Z,93.40
2018-06-12T09:20:35.782Z,93.90
2018-06-12T09:23:04.878Z,94.20
2018-06-12T09:25:34.228Z,93.60
2018-06-12T09:28:03.073Z,93.70
2018-06-12T09:30:31.912Z,94.00
2018-06-12T09:33:00.755Z,94.00
2018-06-12T09:35:29.595Z,94.50
2018-06-12T09:37:58.440Z,95.40
2018-06-12T09:40:27.300Z,95.60
2018-06-12T09:42:56.174Z,95.30
2018-06-12T09:45:25.758Z,94.80
2018-06-12T09:47:55.705Z,95.30
2018-06-12T09:50:25.274Z,95.70
2018-06-12T09:52:54.107Z,95.40
2018-06-12T09:55:22.953Z,95.30
2018-06-12T09:57:51.787Z,95.50
2018-06-12T10:00:20.648Z,96.00
2018-06-12T10:02:49.501Z,96.10
2018-06-12T10:05:18.339Z,96.10
2018-06-12T10:07:48.911Z,95.10
2018-06-12T10:10:17.710Z,95.00
2018-06-12T10:12:46.542Z,96.00
2018-06-12T10:15:16.133Z,95.20
2018-06-12T10:17:44.964Z,95.40
2018-06-12T10:20:13.799Z,95.70
2018-06-12T10:22:42.635Z,95.90
2018-06-12T10:25:11.474Z,95.40
2018-06-12T10:27:40.310Z,95.00
2018-06-12T10:30:09.159Z,95.80
2018-06-12T10:32:38.000Z,95.20
2018-06-12T10:35:06.838Z,95.60
2018-06-12T10:37:35.686Z,94.30
2018-06-12T10:40:04.546Z,94.80
2018-06-12T10:42:34.143Z,93.30
2018-06-12T10:45:03.737Z,93.90
2018-06-12T10:47:33.260Z,93.70
2018-06-12T10:50:02.869Z,93.60
2018-06-12T10:52:31.691Z,92.50
2018-06-12T10:55:00.519Z,92.50
2018-06-12T10:57:29.350Z,92.90
2018-06-12T10:59:58.213Z,92.80
2018-06-12T11:02:27.050Z,93.10
2018-06-12T11:04:55.896Z,93.70
2018-06-12T11:07:25.501Z,92.60
2018-06-12T11:09:55.071Z,92.90
2018-06-12T11:12:23.909Z,92.10
2018-06-12T11:14:52.756Z,92.50
2018-06-12T11:17:21.605Z,92.10
2018-06-12T11:19:50.451Z,92.30
2018-06-12T11:22:19.313Z,92.60
2018-06-12T11:24:48.145Z,91.60
2018-06-12T11:27:17.776Z,91.80
2018-06-12T11:32:16.017Z,92.30
2018-06-12T11:34:44.853Z,91.30
2018-06-12T11:37:13.709Z,91.50
2018-06-12T11:39:42.569Z,91.00
2018-06-12T11:42:11.421Z,91.10
2018-06-12T11:44:40.263Z,90.90
2018-06-12T11:47:09.131Z,90.70
2018-06-12T11:49:37.977Z,90.90
2018-06-12T11:52:07.564Z,90.70
2018-06-12T11:54:36.412Z,89.90
2018-06-12T11:57:05.256Z,89.90
2018-06-12T11:59:34.833Z,90.20
2018-06-12T12:02:03.676Z,90.10
2018-06-12T12:04:32.523Z,90.70
2018-06-12T12:07:01.385Z,90.60
2018-06-12T12:09:30.247Z,90.10
2018-06-12T12:11:59.095Z,90.40
2018-06-12T12:14:28.671Z,90.20
2018-06-12T12:16:57.564Z,87.20
2018-06-12T12:19:26.361Z,87.20
2018-06-12T12:21:55.210Z,87.50
2018-06-12T12:24:24.063Z,89.40
2018-06-12T12:26:53.652Z,88.10
2018-06-12T12:29:22.509Z,88.10
2018-06-12T12:31:51.372Z,87.60
2018-06-12T12:34:20.198Z,89.40
2018-06-12T12:36:49.037Z,89.70
2018-06-12T12:39:18.621Z,89.20
2018-06-12T12:41:47.472Z,90.00
2018-06-12T12:44:16.326Z,89.20
2018-06-12T12:46:45.172Z,88.80
2018-06-12T12:49:14.016Z,88.60
2018-06-12T12:51:42.863Z,87.70
2018-06-12T12:54:11.711Z,88.40
2018-06-12T12:56:40.551Z,88.40
2018-06-12T12:59:10.144Z,89.50
2018-06-12T13:01:38.995Z,88.70
2018-06-12T13:04:07.856Z,89.00
2018-06-12T13:06:36.706Z,90.10
2018-06-12T13:09:05.549Z,90.00
2018-06-12T13:11:34.512Z,90.10
2018-06-12T13:14:04.095Z,90.10
2018-06-12T13:16:32.939Z,90.40
2018-06-12T13:19:01.780Z,90.30
2018-06-12T13:21:30.622Z,90.60
2018-06-12T13:23:59.469Z,90.00
2018-06-12T13:26:29.048Z,90.40
2018-06-12T13:28:57.908Z,90.40
2018-06-12T13:31:27.698Z,90.20
2018-06-12T13:33:57.314Z,90.50
2018-06-12T13:36:26.127Z,90.60
2018-06-12T13:38:54.976Z,90.60
2018-06-12T13:41:23.838Z,90.70
2018-06-12T13:43:52.682Z,91.00
2018-06-12T13:46:21.539Z,90.80
2018-06-12T13:48:50.373Z,90.60
2018-06-12T13:51:19.216Z,90.10
2018-06-12T13:53:48.799Z,90.10
2018-06-12T13:56:17.646Z,89.80
2018-06-12T13:58:46.491Z,89.80
2018-06-12T14:01:15.340Z,89.70
2018-06-12T14:03:44.183Z,90.00
2018-06-12T14:06:13.766Z,89.50
2018-06-12T14:08:42.602Z,89.60
2018-06-12T14:11:11.484Z,89.30
2018-06-12T14:13:40.326Z,89.90
2018-06-12T14:16:09.163Z,89.70
2018-06-12T14:18:38.532Z,89.50
2018-06-12T14:21:07.400Z,90.00
2018-06-12T14:23:36.244Z,89.00
2018-06-12T14:26:05.098Z,88.80
2018-06-12T14:28:33.946Z,89.20
2018-06-12T14:31:06.794Z,89.70
2018-06-12T14:33:35.287Z,89.70
2018-06-12T14:36:04.139Z,90.00
2018-06-12T14:38:32.987Z,89.80
2018-06-12T14:41:02.021Z,90.00
2018-06-12T14:43:32.564Z,91.10
2018-06-12T14:46:00.322Z,92.00
2018-06-12T14:48:29.179Z,92.90
2018-06-12T14:50:59.186Z,93.30
2018-06-12T14:53:28.028Z,93.50
2018-06-12T14:55:57.629Z,93.80
2018-06-12T14:58:27.211Z,94.20
2018-06-12T15:00:56.051Z,93.70
2018-06-12T15:03:24.904Z,93.50
2018-06-12T15:05:53.775Z,93.00
2018-06-12T15:08:23.234Z,92.70
2018-06-12T15:10:52.085Z,92.90
2018-06-12T15:13:20.929Z,93.00
2018-06-12T15:15:50.510Z,92.90
2018-06-12T15:18:19.347Z,92.80
2018-06-12T15:20:48.219Z,93.40
2018-06-12T15:23:17.053Z,93.80
2018-06-12T15:25:46.634Z,92.90
2018-06-12T15:28:15.482Z,92.80
2018-06-12T15:30:44.321Z,92.70
2018-06-12T15:33:13.166Z,92.60
2018-06-12T15:35:42.023Z,93.20
2018-06-12T15:38:11.612Z,92.40
2018-06-12T15:40:40.464Z,93.00
2018-06-12T15:43:09.324Z,92.80
2018-06-12T15:45:38.207Z,91.90
2018-06-12T15:48:07.779Z,92.00
2018-06-12T15:50:36.678Z,92.10
2018-06-12T15:53:05.489Z,91.90
2018-06-12T15:55:34.344Z,91.20
2018-06-12T15:58:03.194Z,91.50
2018-06-12T16:00:32.041Z,92.00
2018-06-12T16:03:00.891Z,91.40
2018-06-12T16:05:29.740Z,91.50
2018-06-12T16:07:58.587Z,91.00
2018-06-12T16:10:27.422Z,91.20
2018-06-12T16:12:56.270Z,90.60
2018-06-12T16:15:25.103Z,90.70
2018-06-12T16:17:53.959Z,90.30
2018-06-12T16:20:22.795Z,90.70
2018-06-12T16:22:51.644Z,90.20
2018-06-12T16:25:20.494Z,90.00
2018-06-12T16:27:49.345Z,90.00
2018-06-12T16:30:18.202Z,90.10
2018-06-12T16:32:47.043Z,89.80
2018-06-12T16:35:15.892Z,90.10
2018-06-12T16:37:44.753Z,90.20
2018-06-12T16:40:13.591Z,90.00
2018-06-12T16:42:42.445Z,90.00
2018-06-12T16:45:11.290Z,89.40
2018-06-12T16:47:40.132Z,90.00
2018-06-12T16:50:08.967Z,90.10
2018-06-12T16:52:37.817Z,89.90
2018-06-12T16:55:06.687Z,89.90
2018-06-12T16:57:35.534Z,89.10
2018-06-12T17:00:04.790Z,88.20
2018-06-12T17:02:33.705Z,88.00
2018-06-12T17:05:02.516Z,87.30
2018-06-12T17:07:31.362Z,87.10
2018-06-12T17:10:00.938Z,88.40
2018-06-12T17:12:29.800Z,87.80
2018-06-12T17:14:58.630Z,86.80
2018-06-12T17:17:27.471Z,86.20
2018-06-12T17:19:56.329Z,86.70
2018-06-12T17:22:25.902Z,85.20
2018-06-12T17:24:54.752Z,86.40
2018-06-12T17:27:23.591Z,85.40
2018-06-12T17:29:53.066Z,84.40
2018-06-12T17:32:21.959Z,84.30
2018-06-12T17:34:50.793Z,84.40
2018-06-12T17:37:20.380Z,84.10
2018-06-12T17:39:49.223Z,83.10
2018-06-12T17:42:18.054Z,82.40
2018-06-12T17:44:46.912Z,82.70
2018-06-12T17:47:15.763Z,82.80
2018-06-12T17:49:44.616Z,82.90
2018-06-12T17:52:13.438Z,82.80
2018-06-12T17:54:42.358Z,83.10
2018-06-12T17:57:11.167Z,82.60
2018-06-12T17:59:40.004Z,83.00
2018-06-12T18:02:09.610Z,82.50
2018-06-12T18:04:39.197Z,81.90
2018-06-12T18:07:08.054Z,81.70
2018-06-12T18:09:36.895Z,83.00
2018-06-12T18:12:05.738Z,83.10
2018-06-12T18:14:34.580Z,81.90
2018-06-12T18:17:03.445Z,84.80
2018-06-12T18:19:32.261Z,79.30
2018-06-12T18:22:01.090Z,80.10
2018-06-12T18:24:29.916Z,81.00
2018-06-12T18:26:58.775Z,81.50
2018-06-12T18:29:28.162Z,82.40
2018-06-12T18:31:57.002Z,82.00
2018-06-12T18:34:25.832Z,82.40
2018-06-12T18:36:54.677Z,82.30
2018-06-12T18:39:24.179Z,81.10
2018-06-12T18:44:22.978Z,81.20
2018-06-12T18:46:52.551Z,81.40
2018-06-12T18:49:21.489Z,80.10
2018-06-12T18:51:50.325Z,79.40
2018-06-12T18:54:19.262Z,79.00
2018-06-12T18:56:48.121Z,78.10
2018-06-12T18:59:16.959Z,78.40
2018-06-12T19:01:46.555Z,77.80
2018-06-12T19:04:15.372Z,78.00
2018-06-12T19:06:44.288Z,77.30
2018-06-12T19:09:13.054Z,77.20
2018-06-12T19:11:41.895Z,77.10
2018-06-12T19:14:10.736Z,76.90
2018-06-12T19:16:39.572Z,76.70
2018-06-12T19:19:08.419Z,77.00
2018-06-12T19:21:40.185Z,77.60
2018-06-12T19:24:09.028Z,77.70
2018-06-12T19:26:37.906Z,77.60
2018-06-12T19:29:06.718Z,77.40
2018-06-12T19:31:37.223Z,77.20
2018-06-12T19:34:06.070Z,77.30
2018-06-12T19:36:34.912Z,77.50
2018-06-12T19:39:03.739Z,77.60
2018-06-12T19:41:32.578Z,77.20
2018-06-12T19:44:01.428Z,77.10
2018-06-12T19:46:30.263Z,77.90
2018-06-12T19:48:59.113Z,77.80
2018-06-12T19:51:28.156Z,77.30
2018-06-12T19:53:57.752Z,77.80
2018-06-12T19:56:26.566Z,77.60
2018-06-12T19:58:55.454Z,77.60
2018-06-12T20:01:25.031Z,77.70
2018-06-12T20:03:53.880Z,77.60
2018-06-12T20:06:22.734Z,77.80
2018-06-12T20:08:52.310Z,78.40
2018-06-12T20:11:21.133Z,77.90
2018-06-12T20:13:49.995Z,78.60
2018-06-12T20:16:18.948Z,78.20
2018-06-12T20:18:47.708Z,78.20
2018-06-12T20:21:16.555Z,78.60
2018-06-12T20:23:45.397Z,78.60
2018-06-12T20:26:14.254Z,78.80
2018-06-12T20:28:43.098Z,79.30
2018-06-12T20:31:11.973Z,79.30
2018-06-12T20:33:40.822Z,79.50
2018-06-12T20:36:09.680Z,79.60
2018-06-12T20:38:38.507Z,79.60
2018-06-12T20:41:08.102Z,79.80
2018-06-12T20:43:37.690Z,79.60
2018-06-12T20:46:06.532Z,79.40
2018-06-12T20:48:35.363Z,79.60
2018-06-12T20:51:04.202Z,79.60
2018-06-12T20:53:33.051Z,80.00
2018-06-12T20:56:01.891Z,80.50
2018-06-12T20:58:30.773Z,80.10
2018-06-12T21:00:59.622Z,80.30
2018-06-12T21:03:28.483Z,80.50
2018-06-12T21:05:57.327Z,80.10
2018-06-12T21:08:26.170Z,80.60
2018-06-12T21:10:55.003Z,80.30
2018-06-12T21:13:25.570Z,80.80
2018-06-12T21:15:54.418Z,80.20
2018-06-12T21:18:24.017Z,80.40
2018-06-12T21:20:52.833Z,80.40
2018-06-12T21:23:21.669Z,80.50
2018-06-12T21:25:50.506Z,81.00
2018-06-12T21:28:19.353Z,80.80
2018-06-12T21:30:48.196Z,80.90
2018-06-12T21:33:17.033Z,81.10
2018-06-12T21:35:46.638Z,80.60
2018-06-12T21:38:15.469Z,81.00
2018-06-12T21:40:44.316Z,80.40
2018-06-12T21:43:13.225Z,80.80
2018-06-12T21:45:42.821Z,80.70
2018-06-12T21:48:11.669Z,80.30
2018-06-12T21:50:40.558Z,80.20
2018-06-12T21:53:09.345Z,79.80
2018-06-12T21:55:38.176Z,79.90
2018-06-12T21:58:07.009Z,79.40
2018-06-12T22:00:35.854Z,79.50
2018-06-12T22:03:04.705Z,79.20
2018-06-12T22:05:33.534Z,79.40
2018-06-12T22:08:03.349Z,79.60
2018-06-12T22:10:32.179Z,78.80
2018-06-12T22:13:01.029Z,78.70
2018-06-12T22:15:29.874Z,78.00
2018-06-12T22:17:58.695Z,78.10
2018-06-12T22:20:27.523Z,78.00
2018-06-12T22:22:56.358Z,78.30
2018-06-12T22:25:25.195Z,77.70
2018-06-12T22:27:54.789Z,78.50
2018-06-12T22:30:24.423Z,78.80
2018-06-12T22:32:53.199Z,78.50
2018-06-12T22:35:22.078Z,79.10
2018-06-12T22:37:50.937Z,78.70
2018-06-12T22:40:19.750Z,78.20
2018-06-12T22:42:49.335Z,78.10
2018-06-12T22:45:18.174Z,77.70
2018-06-12T22:47:47.006Z,78.10
2018-06-12T22:50:15.845Z,78.30
2018-06-12T22:52:44.679Z,78.80
2018-06-12T22:55:13.517Z,78.40
2018-06-12T22:57:42.409Z,77.80
2018-06-12T23:00:11.193Z,77.90
2018-06-12T23:02:40.039Z,78.50
2018-06-12T23:05:08.875Z,77.20
2018-06-12T23:07:37.712Z,77.20
2018-06-12T23:10:06.573Z,77.60
2018-06-12T23:12:35.420Z,77.40
2018-06-12T23:15:04.487Z,77.20
2018-06-12T23:17:33.333Z,76.60
2018-06-12T23:20:20.012Z,76.90
2018-06-12T23:22:49.717Z,76.80
2018-06-12T23:25:18.441Z,76.30
2018-06-12T23:27:47.277Z,76.30
2018-06-12T23:30:16.834Z,75.80
2018-06-12T23:32:45.682Z,75.00
2018-06-12T23:37:43.975Z,75.40
2018-06-12T23:40:12.839Z,75.00
2018-06-12T23:42:41.678Z,75.30
2018-06-12T23:45:11.905Z,75.00
2018-06-12T23:47:40.747Z,75.70
2018-06-12T23:50:09.590Z,75.80
2018-06-12T23:52:38.435Z,76.10
2018-06-12T23:55:07.273Z,75.70
2018-06-12T23:57:36.111Z,76.00
